Time;durP1;ratioP1;P1;durP2;ratioP2;P2;SDS_P1;SDS_P2;PMS_P1;PMS_P2;Temp;Humidity;BMP_temperature;BMP_pressure;BME280_temperature;BME280_humidity;BME280_pressure;Samples;Min_cycle;Max_cycle;Signal;HPM_P1;HPM_P2
2024/01/20 00:01:20;;;;;;;32.67;17.00;;;;;;;;;;5056277;28;20025;-55
2024/01/20 00:03:46;;;;;;;9.18;5.50;;;;;;;;;;5056402;28;20052;-51
2024/01/20 00:06:12;;;;;;;15.00;6.63;;;;;;;;;;5056302;28;20474;-51
2024/01/20 00:08:38;;;;;;;23.38;11.93;;;;;;;;;;5052904;28;20116;-51
2024/01/20 00:11:05;;;;;;;12.77;8.18;;;;;;;;;;5035044;28;20037;-50
2024/01/20 00:13:31;;;;;;;13.85;7.60;;;;;;;;;;5035710;28;20017;-48
2024/01/20 00:15:57;;;;;;;26.50;10.10;;;;;;;;;;5031919;28;20052;-48
2024/01/20 00:18:23;;;;;;;41.83;14.98;;;;;;;;;;5049800;28;20075;-51
2024/01/20 00:20:49;;;;;;;38.38;16.67;;;;;;;;;;5032364;28;20037;-50
2024/01/20 00:23:15;;;;;;;17.08;9.55;;;;;;;;;;5049558;28;20239;-49
2024/01/20 00:25:41;;;;;;;8.98;5.57;;;;;;;;;;5049522;28;20096;-52
2024/01/20 00:28:07;;;;;;;15.25;7.53;;;;;;;;;;5031459;28;20032;-52
2024/01/20 00:30:33;;;;;;;16.50;9.10;;;;;;;;;;5049704;28;20065;-49
2024/01/20 00:32:59;;;;;;;32.08;15.07;;;;;;;;;;5049046;28;20039;-48
2024/01/20 00:35:25;;;;;;;18.45;10.35;;;;;;;;;;5032006;28;20512;-52
2024/01/20 00:37:53;;;;;;;11.07;6.88;;;;;;;;;;5049720;28;20104;-47
2024/01/20 00:40:19;;;;;;;14.00;8.53;;;;;;;;;;5049446;28;20029;-50
2024/01/20 00:42:45;;;;;;;10.10;6.57;;;;;;;;;;5043642;28;20100;-49
2024/01/20 00:45:11;;;;;;;11.05;7.07;;;;;;;;;;5029927;28;20038;-51
2024/01/20 00:47:37;;;;;;;11.35;6.72;;;;;;;;;;5079784;23;20043;-43
2024/01/20 00:50:04;;;;;;;22.35;12.13;;;;;;;;;;5068406;28;20025;-45
2024/01/20 00:52:31;;;;;;;15.40;11.45;;;;;;;;;;5067610;28;20050;-47
2024/01/20 00:54:57;;;;;;;12.75;6.70;;;;;;;;;;5068267;28;20027;-50
2024/01/20 00:57:23;;;;;;;12.27;8.38;;;;;;;;;;5059878;28;20567;-46
2024/01/20 00:59:48;;;;;;;17.10;12.63;;;;;;;;;;5068225;28;20025;-45
2024/01/20 01:02:16;;;;;;;11.82;6.90;;;;;;;;;;5069989;28;20554;-46
2024/01/20 01:04:42;;;;;;;14.60;8.60;;;;;;;;;;5072570;28;20027;-45
2024/01/20 01:07:08;;;;;;;15.15;8.82;;;;;;;;;;5054425;28;20021;-49
2024/01/20 01:09:36;;;;;;;40.33;15.95;;;;;;;;;;5054683;28;20112;-52
2024/01/20 01:12:02;;;;;;;14.50;8.35;;;;;;;;;;5071590;28;20684;-47
2024/01/20 01:14:28;;;;;;;11.88;7.32;;;;;;;;;;5072523;28;20024;-44
2024/01/20 01:16:54;;;;;;;16.42;8.23;;;;;;;;;;5072383;28;20501;-44
2024/01/20 01:19:20;;;;;;;9.90;6.78;;;;;;;;;;5072568;28;20059;-44
2024/01/20 01:21:46;;;;;;;10.13;6.88;;;;;;;;;;5071873;28;20028;-45
2024/01/20 01:24:12;;;;;;;14.80;8.23;;;;;;;;;;5072258;28;20029;-45
2024/01/20 01:26:38;;;;;;;17.67;11.07;;;;;;;;;;5072352;28;20377;-47
2024/01/20 01:29:05;;;;;;;10.10;6.30;;;;;;;;;;5072402;28;20070;-48
2024/01/20 01:31:31;;;;;;;9.50;5.82;;;;;;;;;;5071566;28;20032;-46
2024/01/20 01:33:57;;;;;;;7.90;4.78;;;;;;;;;;5072247;28;20016;-45
2024/01/20 01:36:23;;;;;;;10.63;5.45;;;;;;;;;;5071973;28;20024;-45
2024/01/20 01:38:48;;;;;;;15.93;8.63;;;;;;;;;;5072000;28;20039;-47
2024/01/20 01:41:14;;;;;;;10.93;6.55;;;;;;;;;;5071191;28;20048;-46
2024/01/20 01:43:41;;;;;;;13.80;8.20;;;;;;;;;;5071776;28;20104;-46
2024/01/20 01:46:07;;;;;;;19.05;9.55;;;;;;;;;;5071720;28;20479;-42
2024/01/20 01:48:33;;;;;;;16.23;6.93;;;;;;;;;;5071878;28;20089;-46
2024/01/20 01:51:00;;;;;;;13.88;10.27;;;;;;;;;;5053524;28;20029;-49
2024/01/20 01:53:27;;;;;;;24.50;11.80;;;;;;;;;;5071426;28;20409;-49
2024/01/20 01:55:53;;;;;;;14.73;8.25;;;;;;;;;;5053684;28;20036;-45
2024/01/20 01:58:19;;;;;;;10.82;5.78;;;;;;;;;;5067414;28;20406;-44
2024/01/20 02:00:45;;;;;;;16.73;9.68;;;;;;;;;;5053457;28;20020;-46
2024/01/20 02:03:11;;;;;;;16.23;8.55;;;;;;;;;;5071017;28;20595;-44
2024/01/20 02:05:37;;;;;;;14.55;8.80;;;;;;;;;;5071411;28;20529;-46
2024/01/20 02:08:04;;;;;;;9.20;6.72;;;;;;;;;;5071625;28;20021;-44
2024/01/20 02:10:31;;;;;;;13.85;8.68;;;;;;;;;;5071798;28;20020;-50
2024/01/20 02:12:57;;;;;;;7.30;4.22;;;;;;;;;;5051904;28;20033;-45
2024/01/20 02:15:24;;;;;;;11.73;6.15;;;;;;;;;;5071277;28;20066;-47
2024/01/20 02:17:53;;;;;;;11.48;7.00;;;;;;;;;;5071185;28;20085;-46
2024/01/20 02:20:20;;;;;;;18.52;7.72;;;;;;;;;;5071260;28;20024;-46
2024/01/20 02:22:46;;;;;;;10.27;5.75;;;;;;;;;;5070268;28;20016;-43
2024/01/20 02:25:12;;;;;;;11.38;6.38;;;;;;;;;;5071169;28;20031;-44
2024/01/20 02:27:38;;;;;;;18.65;7.53;;;;;;;;;;5071136;28;20095;-47
2024/01/20 02:30:04;;;;;;;10.40;6.20;;;;;;;;;;5071313;28;20029;-47
2024/01/20 02:32:30;;;;;;;10.88;6.05;;;;;;;;;;5070570;28;20021;-45
2024/01/20 02:34:56;;;;;;;12.25;6.68;;;;;;;;;;5071313;28;20675;-46
2024/01/20 02:37:22;;;;;;;13.38;8.88;;;;;;;;;;5070867;28;20028;-47
2024/01/20 02:39:48;;;;;;;6.75;3.95;;;;;;;;;;5071041;28;20059;-47
2024/01/20 02:42:14;;;;;;;21.52;5.60;;;;;;;;;;5051949;28;20414;-45
2024/01/20 02:44:41;;;;;;;14.65;7.72;;;;;;;;;;5070752;28;20017;-44
2024/01/20 02:47:08;;;;;;;10.48;8.07;;;;;;;;;;5070475;28;20490;-50
2024/01/20 02:49:34;;;;;;;18.13;6.70;;;;;;;;;;5052646;28;20020;-47
2024/01/20 02:52:01;;;;;;;10.10;6.95;;;;;;;;;;5069892;28;20152;-48
2024/01/20 02:54:27;;;;;;;6.75;3.97;;;;;;;;;;5070402;28;20020;-50
2024/01/20 02:56:53;;;;;;;14.68;7.50;;;;;;;;;;5070398;28;20024;-46
2024/01/20 02:59:19;;;;;;;15.13;8.50;;;;;;;;;;5070229;28;20032;-46
2024/01/20 03:01:45;;;;;;;13.52;6.90;;;;;;;;;;5070221;28;20470;-44
2024/01/20 03:04:13;;;;;;;7.78;4.60;;;;;;;;;;5070395;28;20112;-46
2024/01/20 03:06:39;;;;;;;12.85;6.72;;;;;;;;;;5070202;28;20028;-44
2024/01/20 03:09:05;;;;;;;8.25;5.72;;;;;;;;;;5070374;28;20032;-45
2024/01/20 03:11:31;;;;;;;16.52;7.72;;;;;;;;;;5069690;28;20034;-44
2024/01/20 03:13:57;;;;;;;9.48;5.90;;;;;;;;;;5070385;28;20025;-45
2024/01/20 03:16:23;;;;;;;15.57;8.60;;;;;;;;;;5070895;28;20017;-45
2024/01/20 03:18:49;;;;;;;22.42;9.05;;;;;;;;;;5070770;28;20078;-45
2024/01/20 03:21:15;;;;;;;14.68;6.72;;;;;;;;;;5069339;28;20203;-44
2024/01/20 03:23:42;;;;;;;13.75;7.53;;;;;;;;;;5070090;28;20119;-44
2024/01/20 03:26:08;;;;;;;14.02;6.55;;;;;;;;;;5069974;28;20012;-47
2024/01/20 03:28:34;;;;;;;18.40;7.75;;;;;;;;;;5070428;28;20652;-46
2024/01/20 03:31:01;;;;;;;26.13;9.15;;;;;;;;;;5051810;28;20056;-44
2024/01/20 03:33:27;;;;;;;11.25;5.65;;;;;;;;;;5051673;28;20036;-46
2024/01/20 03:35:53;;;;;;;9.57;5.20;;;;;;;;;;5069946;28;20024;-47
2024/01/20 03:38:19;;;;;;;23.67;10.23;;;;;;;;;;5051722;28;20039;-46
2024/01/20 03:40:45;;;;;;;12.07;6.80;;;;;;;;;;5069855;28;20028;-45
2024/01/20 03:43:12;;;;;;;19.75;9.07;;;;;;;;;;5051287;28;20455;-44
2024/01/20 03:45:42;;;;;;;13.32;9.85;;;;;;;;;;5069859;28;20021;-45
2024/01/20 03:48:08;;;;;;;11.00;6.72;;;;;;;;;;5051921;28;20025;-49
2024/01/20 03:50:34;;;;;;;14.80;6.07;;;;;;;;;;5070047;28;20021;-46
2024/01/20 03:53:00;;;;;;;12.18;6.75;;;;;;;;;;5069391;28;20100;-47
2024/01/20 03:55:26;;;;;;;17.05;9.13;;;;;;;;;;5069751;28;20052;-44
2024/01/20 03:57:53;;;;;;;10.07;4.28;;;;;;;;;;5069721;28;20039;-47
2024/01/20 04:00:19;;;;;;;13.15;5.60;;;;;;;;;;5069779;28;20051;-47
2024/01/20 04:02:45;;;;;;;10.02;6.70;;;;;;;;;;5068977;28;20544;-47
2024/01/20 04:05:11;;;;;;;10.40;8.15;;;;;;;;;;5069705;28;20032;-50
2024/01/20 04:07:37;;;;;;;17.30;9.65;;;;;;;;;;5069668;28;20071;-45
2024/01/20 04:10:03;;;;;;;12.27;9.38;;;;;;;;;;5069550;28;20024;-46
2024/01/20 04:12:29;;;;;;;7.60;4.18;;;;;;;;;;5068897;28;20340;-44
2024/01/20 04:14:55;;;;;;;22.55;10.07;;;;;;;;;;5069533;28;20107;-47
2024/01/20 04:17:22;;;;;;;11.68;5.43;;;;;;;;;;5069122;28;20033;-47
2024/01/20 04:19:48;;;;;;;14.05;6.50;;;;;;;;;;5069557;28;20021;-44
2024/01/20 04:22:14;;;;;;;11.98;7.20;;;;;;;;;;5050681;28;20402;-46
2024/01/20 04:24:40;;;;;;;11.70;6.90;;;;;;;;;;5069078;28;20017;-47
2024/01/20 04:27:06;;;;;;;8.15;4.70;;;;;;;;;;5069120;28;20183;-50
2024/01/20 04:29:32;;;;;;;21.80;9.13;;;;;;;;;;5069528;28;20016;-44
2024/01/20 04:31:58;;;;;;;10.13;4.90;;;;;;;;;;5069292;28;20494;-45
2024/01/20 04:34:24;;;;;;;31.30;14.27;;;;;;;;;;5069507;28;20024;-45
2024/01/20 04:36:50;;;;;;;24.73;13.57;;;;;;;;;;5052969;28;20036;-47
2024/01/20 04:39:16;;;;;;;6.80;3.83;;;;;;;;;;5073431;28;20112;-44
2024/01/20 04:41:42;;;;;;;21.33;11.38;;;;;;;;;;5072755;28;20035;-45
2024/01/20 04:44:08;;;;;;;10.90;6.00;;;;;;;;;;5072623;28;20032;-45
2024/01/20 04:46:34;;;;;;;16.42;8.52;;;;;;;;;;5072646;28;20203;-46
2024/01/20 04:48:59;;;;;;;14.05;8.80;;;;;;;;;;5073072;28;20052;-45
2024/01/20 04:51:25;;;;;;;13.07;8.02;;;;;;;;;;5072190;28;20020;-45
2024/01/20 04:53:51;;;;;;;9.15;5.20;;;;;;;;;;5072641;28;20086;-47
2024/01/20 04:56:22;;;;;;;24.83;12.00;;;;;;;;;;5072684;28;20025;-47
2024/01/20 04:58:48;;;;;;;17.20;9.63;;;;;;;;;;5054586;28;20115;-45
2024/01/20 05:01:14;;;;;;;6.80;4.13;;;;;;;;;;5054028;28;20024;-46
2024/01/20 05:03:40;;;;;;;6.82;4.20;;;;;;;;;;5072734;28;20105;-46
2024/01/20 05:06:06;;;;;;;6.20;3.70;;;;;;;;;;5054271;28;20024;-47
2024/01/20 05:08:32;;;;;;;14.20;9.63;;;;;;;;;;5065538;28;20013;-46
2024/01/20 05:10:58;;;;;;;12.73;7.40;;;;;;;;;;5072707;28;20115;-43
2024/01/20 05:13:24;;;;;;;7.95;4.38;;;;;;;;;;5072113;28;20055;-48
2024/01/20 05:15:50;;;;;;;9.38;4.90;;;;;;;;;;5072461;28;20040;-50
2024/01/20 05:18:16;;;;;;;12.60;6.53;;;;;;;;;;5072438;28;20037;-50
2024/01/20 05:20:42;;;;;;;14.50;7.38;;;;;;;;;;5072337;28;20626;-51
2024/01/20 05:23:08;;;;;;;12.27;8.07;;;;;;;;;;5071871;28;20031;-44
2024/01/20 05:25:34;;;;;;;18.30;4.70;;;;;;;;;;5072271;28;20031;-46
2024/01/20 05:28:00;;;;;;;7.00;4.20;;;;;;;;;;5072276;28;20019;-48
2024/01/20 05:30:26;;;;;;;13.25;5.32;;;;;;;;;;5072056;28;20020;-47
2024/01/20 05:32:52;;;;;;;12.57;8.02;;;;;;;;;;5071425;28;20036;-48
2024/01/20 05:35:18;;;;;;;13.18;8.32;;;;;;;;;;5071913;28;20031;-46
2024/01/20 05:37:44;;;;;;;6.50;3.90;;;;;;;;;;5054133;28;20022;-44
2024/01/20 05:40:11;;;;;;;9.10;6.53;;;;;;;;;;5072101;28;20020;-47
2024/01/20 05:42:37;;;;;;;7.25;4.00;;;;;;;;;;5053005;28;20063;-47
2024/01/20 05:45:04;;;;;;;11.98;7.40;;;;;;;;;;5071724;28;20048;-50
2024/01/20 05:47:30;;;;;;;9.82;5.07;;;;;;;;;;5052837;28;20411;-47
2024/01/20 05:49:56;;;;;;;14.73;8.60;;;;;;;;;;5071748;28;20106;-47
2024/01/20 05:52:22;;;;;;;10.02;7.22;;;;;;;;;;5070998;28;20028;-47
2024/01/20 05:54:48;;;;;;;16.90;10.45;;;;;;;;;;5071711;28;20062;-48
2024/01/20 05:57:14;;;;;;;14.70;7.50;;;;;;;;;;5071600;28;20020;-45
2024/01/20 05:59:40;;;;;;;17.88;7.22;;;;;;;;;;5053769;28;20017;-44
2024/01/20 06:02:05;;;;;;;13.60;7.55;;;;;;;;;;5070700;28;20035;-46
2024/01/20 06:04:31;;;;;;;12.68;8.15;;;;;;;;;;5053742;28;20158;-48
2024/01/20 06:06:57;;;;;;;10.45;6.45;;;;;;;;;;5071563;28;20021;-47
2024/01/20 06:09:23;;;;;;;16.30;9.98;;;;;;;;;;5053612;28;20017;-48
2024/01/20 06:11:49;;;;;;;17.88;12.18;;;;;;;;;;5071117;28;20020;-45
2024/01/20 06:14:15;;;;;;;15.85;7.43;;;;;;;;;;5071726;28;20732;-44
2024/01/20 06:16:41;;;;;;;8.88;5.60;;;;;;;;;;5054232;28;20032;-46
2024/01/20 06:19:07;;;;;;;11.35;7.07;;;;;;;;;;5063048;28;20028;-46
2024/01/20 06:21:33;;;;;;;9.27;6.20;;;;;;;;;;5055337;28;20115;-44
2024/01/20 06:23:59;;;;;;;12.60;7.15;;;;;;;;;;5073118;28;20060;-46
2024/01/20 06:26:25;;;;;;;12.05;8.63;;;;;;;;;;5073921;28;20628;-46
2024/01/20 06:28:51;;;;;;;13.10;6.97;;;;;;;;;;5075216;28;20031;-49
2024/01/20 06:31:24;;;;;;;11.52;6.18;;;;;;;;;;5060545;28;20088;-48
2024/01/20 06:33:51;;;;;;;14.00;8.65;;;;;;;;;;5068310;28;20092;-44
2024/01/20 06:36:17;;;;;;;11.68;6.47;;;;;;;;;;5072354;28;20035;-46
2024/01/20 06:38:43;;;;;;;7.07;4.13;;;;;;;;;;5067366;28;20024;-47
2024/01/20 06:41:09;;;;;;;11.60;7.55;;;;;;;;;;5071632;28;20036;-47
2024/01/20 06:43:35;;;;;;;27.52;13.90;;;;;;;;;;5072125;28;20024;-50
2024/01/20 06:48:40;;;;;;;13.85;6.03;;;;;;;;;;5050205;28;20403;-53
2024/01/20 06:51:06;;;;;;;19.65;11.38;;;;;;;;;;5050909;28;20029;-47
2024/01/20 06:53:32;;;;;;;15.70;10.07;;;;;;;;;;5050725;28;20728;-47
2024/01/20 06:55:58;;;;;;;26.10;7.30;;;;;;;;;;5049953;28;20025;-48
2024/01/20 06:58:24;;;;;;;9.27;5.38;;;;;;;;;;5050282;28;20031;-50
2024/01/20 07:00:50;;;;;;;7.65;4.35;;;;;;;;;;5032428;28;20445;-52
2024/01/20 07:03:17;;;;;;;8.23;4.80;;;;;;;;;;5047767;28;20125;-44
2024/01/20 07:05:43;;;;;;;12.68;7.93;;;;;;;;;;5030697;28;20025;-48
2024/01/20 07:08:11;;;;;;;18.08;9.57;;;;;;;;;;5030591;28;20037;-49
2024/01/20 07:10:38;;;;;;;12.15;6.68;;;;;;;;;;5030605;28;20475;-55
2024/01/20 07:13:04;;;;;;;9.88;5.45;;;;;;;;;;5029906;28;20087;-52
2024/01/20 07:15:30;;;;;;;9.30;5.60;;;;;;;;;;5013066;28;20067;-50
2024/01/20 07:17:56;;;;;;;23.77;11.25;;;;;;;;;;5030546;28;20037;-51
2024/01/20 07:20:22;;;;;;;13.15;6.95;;;;;;;;;;5012874;28;20036;-49
2024/01/20 07:22:49;;;;;;;11.38;6.18;;;;;;;;;;5029919;28;20026;-46
2024/01/20 07:25:16;;;;;;;7.13;4.28;;;;;;;;;;5030393;28;20025;-52
2024/01/20 07:27:42;;;;;;;8.90;6.10;;;;;;;;;;5030768;28;20079;-47
2024/01/20 07:30:08;;;;;;;14.77;8.55;;;;;;;;;;5030975;28;20021;-49
2024/01/20 07:32:35;;;;;;;14.77;10.65;;;;;;;;;;5027751;28;20564;-45
2024/01/20 07:35:01;;;;;;;10.80;6.65;;;;;;;;;;5030926;28;20033;-54
2024/01/20 07:37:28;;;;;;;8.52;5.30;;;;;;;;;;5031631;28;20162;-53
2024/01/20 07:39:54;;;;;;;11.35;7.00;;;;;;;;;;5031665;28;20033;-47
2024/01/20 07:42:20;;;;;;;20.13;11.52;;;;;;;;;;5028359;28;20033;-50
2024/01/20 07:44:46;;;;;;;11.05;8.35;;;;;;;;;;5029884;28;20475;-47
2024/01/20 07:47:14;;;;;;;14.02;6.82;;;;;;;;;;5030134;28;20481;-48
2024/01/20 07:49:40;;;;;;;9.63;6.20;;;;;;;;;;5029223;28;20032;-48
2024/01/20 07:52:06;;;;;;;15.70;10.18;;;;;;;;;;5029272;28;20017;-48
2024/01/20 07:54:32;;;;;;;13.57;8.27;;;;;;;;;;5030015;28;20025;-52
2024/01/20 07:56:58;;;;;;;24.17;12.48;;;;;;;;;;5029722;28;20120;-46
2024/01/20 07:59:24;;;;;;;27.73;16.60;;;;;;;;;;5028983;28;20113;-46
2024/01/20 08:01:50;;;;;;;17.00;9.05;;;;;;;;;;5029418;28;20100;-48
2024/01/20 08:04:17;;;;;;;16.83;9.73;;;;;;;;;;5030134;28;20103;-49
2024/01/20 08:06:43;;;;;;;7.25;4.22;;;;;;;;;;5032070;28;20518;-51
2024/01/20 08:09:10;;;;;;;23.80;9.57;;;;;;;;;;5050065;28;20036;-49
2024/01/20 08:11:36;;;;;;;9.45;5.60;;;;;;;;;;5051197;28;20017;-50
2024/01/20 08:14:02;;;;;;;25.80;13.95;;;;;;;;;;5053961;28;20082;-49
2024/01/20 08:16:28;;;;;;;17.63;8.52;;;;;;;;;;5054079;28;20033;-49
2024/01/20 08:18:55;;;;;;;7.13;4.25;;;;;;;;;;5035917;28;20032;-48
2024/01/20 08:21:21;;;;;;;7.30;4.30;;;;;;;;;;5052905;28;20028;-49
2024/01/20 08:23:47;;;;;;;7.53;4.43;;;;;;;;;;5053599;28;20024;-56
2024/01/20 08:26:14;;;;;;;12.07;8.25;;;;;;;;;;5035545;28;20053;-49
2024/01/20 08:28:40;;;;;;;11.45;5.28;;;;;;;;;;5036032;28;20021;-51
2024/01/20 08:31:06;;;;;;;14.75;6.32;;;;;;;;;;5052314;28;20013;-50
2024/01/20 08:33:32;;;;;;;11.20;7.30;;;;;;;;;;5033955;28;20026;-48
2024/01/20 08:35:58;;;;;;;13.63;8.07;;;;;;;;;;5034012;28;20030;-49
2024/01/20 08:38:24;;;;;;;9.77;5.38;;;;;;;;;;5033929;28;20029;-53
2024/01/20 08:40:50;;;;;;;21.48;13.27;;;;;;;;;;5033786;28;20115;-51
2024/01/20 08:43:16;;;;;;;13.02;6.43;;;;;;;;;;5033221;28;20066;-49
2024/01/20 08:45:43;;;;;;;12.35;8.98;;;;;;;;;;5038683;28;20009;-51
2024/01/20 08:48:09;;;;;;;18.15;7.88;;;;;;;;;;5053039;28;20029;-48
2024/01/20 08:50:35;;;;;;;8.43;5.85;;;;;;;;;;5035860;28;20016;-48
2024/01/20 08:53:01;;;;;;;16.65;8.50;;;;;;;;;;5034838;28;20086;-50
2024/01/20 08:55:27;;;;;;;13.45;8.30;;;;;;;;;;5035474;28;20025;-49
2024/01/20 08:57:53;;;;;;;14.93;7.78;;;;;;;;;;5053223;28;20029;-53
2024/01/20 09:00:19;;;;;;;9.75;7.55;;;;;;;;;;5053200;28;20021;-50
2024/01/20 09:02:45;;;;;;;9.52;6.43;;;;;;;;;;5052498;28;20398;-48
2024/01/20 09:05:12;;;;;;;12.75;6.18;;;;;;;;;;5053231;28;20037;-53
2024/01/20 09:07:38;;;;;;;15.18;8.35;;;;;;;;;;5035138;28;20502;-49
2024/01/20 09:10:04;;;;;;;15.05;8.05;;;;;;;;;;5052802;28;20045;-52
2024/01/20 09:12:30;;;;;;;11.70;7.07;;;;;;;;;;5033800;28;20471;-50
2024/01/20 09:14:57;;;;;;;21.70;12.82;;;;;;;;;;5034914;28;20021;-53
2024/01/20 09:17:23;;;;;;;9.07;5.68;;;;;;;;;;5052413;28;20051;-50
2024/01/20 09:19:49;;;;;;;24.73;18.65;;;;;;;;;;5052599;28;20021;-48
2024/01/20 09:22:16;;;;;;;8.48;4.97;;;;;;;;;;5051401;28;20021;-49
2024/01/20 09:24:43;;;;;;;11.35;6.70;;;;;;;;;;5052779;28;20070;-50
2024/01/20 09:27:09;;;;;;;12.50;9.07;;;;;;;;;;5034968;28;20672;-48
2024/01/20 09:29:35;;;;;;;8.07;5.07;;;;;;;;;;5022376;28;20236;-50
2024/01/20 09:32:01;;;;;;;8.25;5.10;;;;;;;;;;5034959;28;20025;-47
2024/01/20 09:34:28;;;;;;;20.08;10.68;;;;;;;;;;5036127;28;20158;-48
2024/01/20 09:36:54;;;;;;;20.65;11.20;;;;;;;;;;5034212;28;20025;-54
2024/01/20 09:39:20;;;;;;;29.17;13.50;;;;;;;;;;5044218;28;20032;-55
2024/01/20 09:41:47;;;;;;;18.25;7.45;;;;;;;;;;5019443;28;20025;-55
2024/01/20 09:44:15;;;;;;;9.68;5.70;;;;;;;;;;5032298;28;20029;-50
2024/01/20 09:46:42;;;;;;;8.90;5.20;;;;;;;;;;5032099;28;20068;-51
2024/01/20 09:49:08;;;;;;;22.55;8.77;;;;;;;;;;5032687;28;20087;-53
2024/01/20 09:51:35;;;;;;;16.23;9.07;;;;;;;;;;5013843;28;20025;-50
2024/01/20 09:54:01;;;;;;;19.15;9.48;;;;;;;;;;5032266;28;20431;-54
2024/01/20 09:56:28;;;;;;;11.45;6.75;;;;;;;;;;5014363;28;20052;-50
2024/01/20 09:58:59;;;;;;;10.20;6.50;;;;;;;;;;5031822;28;20250;-52
2024/01/20 10:01:26;;;;;;;10.70;7.18;;;;;;;;;;5013945;28;20049;-50
2024/01/20 10:03:53;;;;;;;24.33;9.95;;;;;;;;;;5032534;28;20218;-52
2024/01/20 10:06:19;;;;;;;14.27;8.10;;;;;;;;;;5014159;28;20029;-51
2024/01/20 10:08:45;;;;;;;12.35;5.20;;;;;;;;;;5014148;28;20040;-51
2024/01/20 10:11:11;;;;;;;17.55;7.90;;;;;;;;;;5030988;28;20216;-52
2024/01/20 10:13:37;;;;;;;7.72;4.47;;;;;;;;;;5031955;28;20029;-52
2024/01/20 10:16:06;;;;;;;11.27;6.30;;;;;;;;;;5014012;28;20025;-51
2024/01/20 10:18:33;;;;;;;55.42;10.60;;;;;;;;;;5031766;28;20021;-52
2024/01/20 10:21:02;;;;;;;8.93;5.65;;;;;;;;;;5031546;28;20037;-53
2024/01/20 10:23:28;;;;;;;13.65;8.27;;;;;;;;;;5031076;28;20102;-48
2024/01/20 10:26:01;;;;;;;12.98;5.63;;;;;;;;;;5031849;28;20319;-50
2024/01/20 10:28:27;;;;;;;16.05;5.63;;;;;;;;;;5031297;28;20024;-50
2024/01/20 10:30:53;;;;;;;11.77;8.27;;;;;;;;;;5015151;28;20017;-49
2024/01/20 10:33:19;;;;;;;14.40;7.75;;;;;;;;;;5032231;28;20280;-52
2024/01/20 10:35:46;;;;;;;9.10;6.57;;;;;;;;;;5033077;28;20036;-52
2024/01/20 10:38:14;;;;;;;12.45;6.70;;;;;;;;;;5051448;28;20033;-53
2024/01/20 10:40:42;;;;;;;12.65;7.25;;;;;;;;;;5051093;28;20449;-49
2024/01/20 10:43:12;;;;;;;7.97;4.80;;;;;;;;;;5050486;28;20025;-49
2024/01/20 10:45:43;;;;;;;12.10;6.32;;;;;;;;;;5033309;28;20028;-49
2024/01/20 10:48:16;;;;;;;13.43;8.02;;;;;;;;;;5051777;28;20051;-51
2024/01/20 10:50:46;;;;;;;8.20;4.88;;;;;;;;;;5052579;28;20657;-52
2024/01/20 10:53:12;;;;;;;14.07;8.07;;;;;;;;;;5051562;28;20626;-49
2024/01/20 10:55:40;;;;;;;8.30;4.80;;;;;;;;;;5028365;28;20029;-49
2024/01/20 10:58:08;;;;;;;8.95;5.28;;;;;;;;;;5032390;28;20083;-50
2024/01/20 11:00:36;;;;;;;9.48;5.03;;;;;;;;;;5038603;28;20021;-51
2024/01/20 11:03:03;;;;;;;9.15;5.28;;;;;;;;;;5045081;28;20116;-51
2024/01/20 11:05:29;;;;;;;13.77;7.63;;;;;;;;;;5030725;28;20487;-53
2024/01/20 11:08:08;;;;;;;10.52;5.97;;;;;;;;;;5039621;28;20029;-51
2024/01/20 11:10:47;;;;;;;8.73;5.20;;;;;;;;;;5021689;28;20510;-49
2024/01/20 11:13:13;;;;;;;10.93;7.53;;;;;;;;;;5049746;28;20081;-53
2024/01/20 11:15:40;;;;;;;9.00;5.30;;;;;;;;;;5050454;28;20029;-49
2024/01/20 11:18:17;;;;;;;12.27;7.45;;;;;;;;;;5032206;28;20025;-47
2024/01/20 11:20:54;;;;;;;9.98;6.00;;;;;;;;;;5032336;28;20028;-55
2024/01/20 11:23:20;;;;;;;12.55;7.05;;;;;;;;;;5050076;28;20021;-51
2024/01/20 11:25:46;;;;;;;11.07;6.53;;;;;;;;;;5050791;28;20084;-50
2024/01/20 11:28:22;;;;;;;12.93;5.53;;;;;;;;;;5050352;28;20130;-51
2024/01/20 11:30:48;;;;;;;13.05;7.47;;;;;;;;;;5050002;28;20021;-56
2024/01/20 11:33:15;;;;;;;8.65;5.10;;;;;;;;;;5032439;28;20029;-49
2024/01/20 11:35:41;;;;;;;10.93;6.75;;;;;;;;;;5051017;28;20044;-53
2024/01/20 11:38:08;;;;;;;9.32;5.50;;;;;;;;;;5052070;28;20059;-52
2024/01/20 11:40:34;;;;;;;13.13;7.30;;;;;;;;;;5053676;28;20028;-49
2024/01/20 11:43:07;;;;;;;9.30;5.50;;;;;;;;;;5053388;28;20398;-50
2024/01/20 11:45:33;;;;;;;10.65;6.22;;;;;;;;;;5053362;28;20052;-52
2024/01/20 11:47:59;;;;;;;10.38;6.13;;;;;;;;;;5055516;28;20032;-49
2024/01/20 11:50:25;;;;;;;13.50;6.65;;;;;;;;;;5058955;28;20573;-48
2024/01/20 11:52:51;;;;;;;9.75;5.75;;;;;;;;;;5058919;28;20052;-50
2024/01/20 11:55:17;;;;;;;10.43;5.75;;;;;;;;;;5053975;28;20029;-49
2024/01/20 11:57:43;;;;;;;11.68;6.65;;;;;;;;;;5031884;28;20021;-50
2024/01/20 12:00:11;;;;;;;10.18;5.90;;;;;;;;;;5032408;28;20088;-49
2024/01/20 12:02:37;;;;;;;11.10;7.18;;;;;;;;;;5028747;28;20395;-49
2024/01/20 12:05:03;;;;;;;9.77;5.75;;;;;;;;;;5030346;28;20025;-50
2024/01/20 12:07:30;;;;;;;10.05;6.00;;;;;;;;;;5030099;28;20022;-49
2024/01/20 12:09:57;;;;;;;9.65;5.78;;;;;;;;;;5012380;28;20040;-48
2024/01/20 12:12:22;;;;;;;10.20;6.15;;;;;;;;;;5048444;28;20156;-48
2024/01/20 12:14:50;;;;;;;9.70;5.80;;;;;;;;;;5031960;28;20052;-49
2024/01/20 12:17:16;;;;;;;9.80;5.85;;;;;;;;;;5049434;28;20547;-53
2024/01/20 12:19:42;;;;;;;12.02;8.20;;;;;;;;;;5049679;28;20025;-50
2024/01/20 12:22:09;;;;;;;8.32;4.90;;;;;;;;;;5030531;28;20092;-51
2024/01/20 12:24:35;;;;;;;9.27;5.60;;;;;;;;;;5031396;28;20147;-51
2024/01/20 12:27:02;;;;;;;12.40;6.85;;;;;;;;;;5049144;28;20025;-49
2024/01/20 12:29:29;;;;;;;9.02;5.30;;;;;;;;;;5049419;28;20043;-53
2024/01/20 12:31:55;;;;;;;10.20;5.88;;;;;;;;;;5041355;28;20053;-49
2024/01/20 12:34:25;;;;;;;9.65;5.55;;;;;;;;;;5029621;28;20068;-53
2024/01/20 12:36:51;;;;;;;10.15;6.03;;;;;;;;;;5044625;28;20051;-49
2024/01/20 12:39:17;;;;;;;9.85;5.50;;;;;;;;;;5047401;28;20086;-49
2024/01/20 12:41:43;;;;;;;8.43;5.00;;;;;;;;;;5028605;28;20391;-51
2024/01/20 12:44:09;;;;;;;12.00;6.22;;;;;;;;;;5011755;28;20030;-51
2024/01/20 12:49:11;;;;;;;9.35;5.50;;;;;;;;;;5047471;28;20214;-45
2024/01/20 12:51:37;;;;;;;11.30;7.15;;;;;;;;;;5048433;28;20028;-47
2024/01/20 12:54:03;;;;;;;13.05;7.28;;;;;;;;;;5061433;28;20127;-50
2024/01/20 12:56:29;;;;;;;11.35;6.65;;;;;;;;;;5039721;28;20028;-47
2024/01/20 12:58:56;;;;;;;12.75;6.88;;;;;;;;;;5048862;28;20069;-46
2024/01/20 13:01:23;;;;;;;11.10;6.93;;;;;;;;;;5051514;28;20029;-49
2024/01/20 13:03:50;;;;;;;10.48;6.22;;;;;;;;;;5063515;28;20025;-50
2024/01/20 13:06:16;;;;;;;10.07;5.93;;;;;;;;;;5051154;28;20465;-51
2024/01/20 13:08:42;;;;;;;13.90;7.97;;;;;;;;;;5047384;28;20042;-50
2024/01/20 13:11:09;;;;;;;11.43;6.70;;;;;;;;;;5032019;28;20052;-47
2024/01/20 13:13:35;;;;;;;12.00;7.22;;;;;;;;;;5032949;28;20029;-51
2024/01/20 13:16:01;;;;;;;11.45;6.80;;;;;;;;;;5032498;28;20040;-52
2024/01/20 13:18:26;;;;;;;11.27;6.60;;;;;;;;;;5031321;28;20091;-45
2024/01/20 13:20:53;;;;;;;11.90;6.70;;;;;;;;;;5047318;28;20426;-48
2024/01/20 13:23:19;;;;;;;12.13;7.15;;;;;;;;;;5051795;28;20568;-48
2024/01/20 13:25:45;;;;;;;11.80;7.00;;;;;;;;;;5052072;28;20112;-46
2024/01/20 13:28:13;;;;;;;10.57;6.20;;;;;;;;;;5052337;28;20154;-49
2024/01/20 13:30:39;;;;;;;;;;;;;;;;;;5052699;28;20041;-47
2024/01/20 13:33:05;;;;;;;15.68;8.00;;;;;;;;;;5048629;28;19970;-52
2024/01/20 13:35:31;;;;;;;11.68;7.10;;;;;;;;;;5067508;28;20025;-47
2024/01/20 13:37:57;;;;;;;11.40;6.70;;;;;;;;;;5052011;28;20498;-45
2024/01/20 13:40:23;;;;;;;11.43;6.72;;;;;;;;;;5066965;28;20033;-48
2024/01/20 13:42:49;;;;;;;12.13;7.22;;;;;;;;;;5051607;28;20057;-51
2024/01/20 13:45:15;;;;;;;11.93;7.00;;;;;;;;;;5067381;28;20117;-47
2024/01/20 13:47:41;;;;;;;14.23;9.00;;;;;;;;;;5051818;28;20033;-45
2024/01/20 13:50:07;;;;;;;14.57;8.95;;;;;;;;;;5066925;28;20482;-47
2024/01/20 13:52:33;;;;;;;12.18;7.13;;;;;;;;;;5051214;28;20490;-51
2024/01/20 13:54:59;;;;;;;12.80;7.50;;;;;;;;;;5051411;28;20074;-51
2024/01/20 13:57:25;;;;;;;12.60;7.30;;;;;;;;;;5051642;28;20108;-46
2024/01/20 13:59:51;;;;;;;12.70;7.70;;;;;;;;;;5051714;28;20511;-51
2024/01/20 14:02:17;;;;;;;12.13;7.25;;;;;;;;;;5066467;28;20016;-50
2024/01/20 14:04:45;;;;;;;11.75;6.93;;;;;;;;;;5052012;28;20491;-49
2024/01/20 14:07:11;;;;;;;11.85;6.93;;;;;;;;;;5051702;28;20100;-49
2024/01/20 14:09:37;;;;;;;15.68;9.73;;;;;;;;;;5050620;28;20032;-49
2024/01/20 14:12:03;;;;;;;13.40;7.70;;;;;;;;;;5050909;28;20021;-48
2024/01/20 14:14:29;;;;;;;12.07;7.10;;;;;;;;;;5066799;28;20025;-51
2024/01/20 14:16:56;;;;;;;11.95;7.00;;;;;;;;;;5051260;28;20109;-47
2024/01/20 14:19:22;;;;;;;12.30;7.15;;;;;;;;;;5051979;28;20399;-49
2024/01/20 14:21:48;;;;;;;12.38;7.20;;;;;;;;;;5050596;28;20032;-49
2024/01/20 14:24:14;;;;;;;11.80;6.90;;;;;;;;;;5067766;28;20437;-50
2024/01/20 14:26:41;;;;;;;11.98;6.95;;;;;;;;;;5051565;28;20108;-48
2024/01/20 14:29:08;;;;;;;13.02;8.38;;;;;;;;;;5067051;28;20344;-52
2024/01/20 14:31:44;;;;;;;12.88;7.72;;;;;;;;;;5050988;28;20618;-49